Terminal Aerodrome Forecast
Issued by NWS Louisville, KY

Home | Current Version | Previous Version | Text Only | Print | Product List | Glossary On
Versions: 1 2 3 4 5 6 7 8 9 10 11 12 13 14
909
FTUS43 KLMK 040250 AAA
TAFBWG
TAF AMD
KBWG 040250Z 0403/0424 29007KT P6SM BKN040
      TEMPO 0407/0411 BKN025
     FM041100 31005KT P6SM BKN025
     FM041600 30006KT P6SM SCT030=

USA.gov is the U.S. government's official web portal to all federal, state and local government web resources and services.